Time;durP1;ratioP1;P1;durP2;ratioP2;P2;SDS_P1;SDS_P2;PMS_P1;PMS_P2;Temp;Humidity;BMP_temperature;BMP_pressure;BME280_temperature;BME280_humidity;BME280_pressure;Samples;Min_cycle;Max_cycle;Signal;HPM_P1;HPM_P2
2022/07/27 00:02:20;;;;;;;2.00;1.23;;;18.20;99.90;;;;;;5050648;28;20458;-53
2022/07/27 00:04:47;;;;;;;3.07;1.30;;;18.20;99.90;;;;;;5050338;28;20476;-54
2022/07/27 00:07:13;;;;;;;2.80;1.73;;;18.10;99.90;;;;;;5050982;28;20481;-34
2022/07/27 00:09:40;;;;;;;4.83;1.00;;;18.10;99.90;;;;;;5050065;28;20512;-41
2022/07/27 00:12:07;;;;;;;2.90;1.20;;;18.10;99.90;;;;;;5051137;28;20450;-41
2022/07/27 00:14:36;;;;;;;2.53;1.40;;;18.10;99.90;;;;;;5051289;28;20480;-50
2022/07/27 00:17:04;;;;;;;1.97;1.67;;;18.10;99.90;;;;;;5050886;28;20472;-45
2022/07/27 00:19:31;;;;;;;4.03;1.80;;;18.10;99.90;;;;;;5050696;28;20451;-47
2022/07/27 00:21:58;;;;;;;4.63;1.77;;;18.10;99.90;;;;;;5050297;28;20535;-47
2022/07/27 00:24:25;;;;;;;5.03;1.23;;;18.00;99.90;;;;;;5046482;28;20468;-38
2022/07/27 00:26:52;;;;;;;3.70;1.63;;;18.00;99.90;;;;;;5048743;28;20462;-50
2022/07/27 00:29:19;;;;;;;5.33;1.23;;;17.90;99.90;;;;;;5050999;28;20463;-43
2022/07/27 00:31:46;;;;;;;5.53;1.10;;;17.90;99.90;;;;;;5050030;28;20464;-48
2022/07/27 00:34:14;;;;;;;2.37;1.10;;;17.80;99.90;;;;;;5050970;28;20444;-40
2022/07/27 00:36:41;;;;;;;3.57;2.00;;;17.90;99.90;;;;;;5050726;28;20488;-46
2022/07/27 00:39:09;;;;;;;3.17;1.40;;;17.80;99.90;;;;;;5051316;28;20460;-36
2022/07/27 00:41:36;;;;;;;3.00;1.53;;;17.80;99.90;;;;;;5050736;28;20498;-49
2022/07/27 00:44:05;;;;;;;2.60;1.43;;;17.80;99.90;;;;;;5050605;28;20445;-45
2022/07/27 00:46:32;;;;;;;4.10;1.70;;;17.80;99.90;;;;;;5050697;28;20464;-49
2022/07/27 00:48:59;;;;;;;3.60;1.37;;;17.80;99.90;;;;;;5050697;28;20543;-52
2022/07/27 00:51:28;;;;;;;2.90;1.43;;;17.70;99.90;;;;;;5051091;28;20472;-48
2022/07/27 00:53:55;;;;;;;2.37;1.60;;;17.60;99.90;;;;;;5050312;28;20463;-46
2022/07/27 00:56:22;;;;;;;2.63;1.67;;;17.60;99.90;;;;;;5050394;28;20452;-48
2022/07/27 00:58:51;;;;;;;1.63;1.50;;;17.50;99.90;;;;;;5050592;28;20428;-41
2022/07/27 01:01:19;;;;;;;4.47;1.10;;;17.50;99.90;;;;;;5050165;28;20774;-43
2022/07/27 01:03:46;;;;;;;4.80;1.50;;;17.40;99.90;;;;;;5050428;28;20500;-46
2022/07/27 01:06:13;;;;;;;4.60;1.20;;;17.40;99.90;;;;;;5050158;28;20449;-49
2022/07/27 01:08:42;;;;;;;1.90;1.37;;;17.30;99.90;;;;;;5050504;28;20446;-37
2022/07/27 01:11:09;;;;;;;2.67;1.10;;;17.30;99.90;;;;;;5050478;28;20512;-38
2022/07/27 01:13:37;;;;;;;4.23;1.60;;;17.20;99.90;;;;;;5051100;28;20436;-50
2022/07/27 01:16:06;;;;;;;3.70;1.60;;;17.20;99.90;;;;;;5053117;28;20447;-43
2022/07/27 01:18:33;;;;;;;8.70;1.70;;;17.20;99.90;;;;;;5053173;28;20514;-48
2022/07/27 01:21:02;;;;;;;2.87;1.40;;;17.20;99.90;;;;;;5053675;28;20456;-47
2022/07/27 01:23:32;;;;;;;9.70;2.10;;;17.10;99.90;;;;;;5053925;28;20602;-42
2022/07/27 01:25:59;;;;;;;8.43;2.77;;;17.10;99.90;;;;;;5053371;28;20454;-47
2022/07/27 01:28:26;;;;;;;1.50;1.10;;;17.10;99.90;;;;;;5054246;28;20558;-43
2022/07/27 01:30:54;;;;;;;6.10;1.40;;;17.00;99.90;;;;;;5054068;28;20523;-46
2022/07/27 01:33:24;;;;;;;3.20;1.40;;;16.90;99.90;;;;;;5053651;28;20468;-49
2022/07/27 01:35:53;;;;;;;6.43;1.73;;;16.90;99.90;;;;;;5053699;28;20451;-54
2022/07/27 01:38:19;;;;;;;2.60;1.20;;;16.90;99.90;;;;;;5052728;28;20479;-45
2022/07/27 01:40:48;;;;;;;3.80;1.73;;;16.80;99.90;;;;;;5053082;28;20454;-49
2022/07/27 01:43:15;;;;;;;3.30;1.37;;;16.80;99.90;;;;;;5053024;28;20544;-46
2022/07/27 01:45:41;;;;;;;5.00;1.40;;;16.80;99.90;;;;;;5053202;28;20439;-40
2022/07/27 01:48:09;;;;;;;6.07;1.60;;;16.70;99.90;;;;;;5053462;28;20464;-37
2022/07/27 01:50:36;;;;;;;4.50;1.00;;;16.60;99.90;;;;;;5053908;28;20543;-51
2022/07/27 01:53:03;;;;;;;4.53;1.47;;;16.60;99.90;;;;;;5053137;28;20455;-51
2022/07/27 01:55:30;;;;;;;1.93;1.40;;;16.60;99.90;;;;;;5053316;28;20512;-52
2022/07/27 01:57:59;;;;;;;5.00;1.63;;;16.60;99.90;;;;;;5052654;28;20579;-49
2022/07/27 02:00:25;;;;;;;5.30;1.53;;;16.50;99.90;;;;;;5052517;28;20500;-46
2022/07/27 02:02:52;;;;;;;1.70;1.10;;;16.50;99.90;;;;;;5052661;28;20454;-53
2022/07/27 02:05:19;;;;;;;5.07;1.40;;;16.50;99.90;;;;;;5052595;28;20463;-48
2022/07/27 02:07:46;;;;;;;1.50;1.10;;;16.50;99.90;;;;;;5052366;28;20436;-37
2022/07/27 02:10:13;;;;;;;3.60;1.37;;;16.30;99.90;;;;;;5052868;28;20583;-38
2022/07/27 02:12:39;;;;;;;2.17;1.07;;;16.30;99.90;;;;;;5052426;28;20458;-35
2022/07/27 02:15:09;;;;;;;3.77;1.20;;;16.20;99.90;;;;;;5052472;28;20433;-45
2022/07/27 02:17:37;;;;;;;2.77;1.00;;;16.20;99.90;;;;;;5052659;28;20190;-44
2022/07/27 02:20:05;;;;;;;3.00;1.20;;;16.20;99.90;;;;;;5052512;28;20460;-49
2022/07/27 02:22:32;;;;;;;6.80;1.70;;;16.10;99.90;;;;;;5052662;28;20516;-45
2022/07/27 02:24:58;;;;;;;2.10;1.30;;;16.10;99.90;;;;;;5051975;28;20476;-46
2022/07/27 02:27:25;;;;;;;6.07;1.27;;;16.00;99.90;;;;;;5051763;28;20448;-46
2022/07/27 02:29:53;;;;;;;2.23;1.00;;;16.00;99.90;;;;;;5051853;28;20464;-46
2022/07/27 02:32:21;;;;;;;5.93;1.20;;;16.00;99.90;;;;;;5052446;28;20474;-47
2022/07/27 02:34:48;;;;;;;2.93;1.30;;;15.90;99.90;;;;;;5052288;28;20480;-54
2022/07/27 02:37:15;;;;;;;8.17;2.00;;;15.90;99.90;;;;;;5052386;28;20508;-45
2022/07/27 02:39:42;;;;;;;5.17;1.20;;;15.90;99.90;;;;;;5052356;28;20483;-34
2022/07/27 02:42:09;;;;;;;2.23;1.20;;;15.90;99.90;;;;;;5052084;28;20480;-40
2022/07/27 02:44:36;;;;;;;3.40;1.30;;;15.90;99.90;;;;;;5052751;28;20496;-50
2022/07/27 02:47:03;;;;;;;2.30;1.23;;;15.80;99.90;;;;;;5052159;28;20460;-56
2022/07/27 02:49:31;;;;;;;2.50;1.20;;;15.80;99.90;;;;;;5052137;28;20462;-46
2022/07/27 02:51:58;;;;;;;2.60;1.63;;;15.80;99.90;;;;;;5051999;28;20436;-52
2022/07/27 02:54:25;;;;;;;2.47;1.23;;;15.80;99.90;;;;;;5052020;28;20466;-44
2022/07/27 02:56:55;;;;;;;1.40;1.00;;;15.80;99.90;;;;;;5051404;28;20516;-52
2022/07/27 02:59:23;;;;;;;1.70;1.40;;;15.70;99.90;;;;;;5051719;28;20496;-48
2022/07/27 03:01:50;;;;;;;2.77;1.40;;;15.80;99.90;;;;;;5051639;28;20519;-51
2022/07/27 03:04:17;;;;;;;8.33;1.67;;;15.70;99.90;;;;;;5051805;28;20459;-53
2022/07/27 03:06:46;;;;;;;3.50;1.30;;;15.70;99.90;;;;;;5051685;28;20559;-38
2022/07/27 03:09:16;;;;;;;3.63;1.37;;;15.70;99.90;;;;;;5051803;28;20504;-47
2022/07/27 03:11:42;;;;;;;3.47;1.53;;;15.70;99.90;;;;;;5051442;28;20503;-34
2022/07/27 03:14:09;;;;;;;5.03;1.13;;;15.70;99.90;;;;;;5051532;28;20536;-38
2022/07/27 03:16:36;;;;;;;3.20;1.20;;;15.60;99.90;;;;;;5051207;28;20527;-44
2022/07/27 03:19:04;;;;;;;3.33;1.13;;;15.60;99.90;;;;;;5050889;28;20549;-48
2022/07/27 03:21:31;;;;;;;2.33;1.10;;;15.60;99.90;;;;;;5051330;28;20493;-47
2022/07/27 03:24:01;;;;;;;1.93;1.20;;;15.60;99.90;;;;;;5051189;28;20566;-47
2022/07/27 03:26:29;;;;;;;4.40;1.30;;;15.60;99.90;;;;;;5051588;28;20532;-46
2022/07/27 03:28:56;;;;;;;1.93;1.10;;;15.60;99.90;;;;;;5050990;28;20508;-47
2022/07/27 03:31:23;;;;;;;8.60;1.70;;;15.60;99.90;;;;;;5051062;28;20540;-49
2022/07/27 03:33:50;;;;;;;2.13;1.40;;;15.60;99.90;;;;;;5051104;28;20512;-43
2022/07/27 03:36:16;;;;;;;3.07;1.20;;;15.60;99.90;;;;;;5050388;28;20496;-46
2022/07/27 03:38:43;;;;;;;4.70;1.10;;;15.50;99.90;;;;;;5050734;28;20476;-40
2022/07/27 03:41:17;;;;;;;3.30;2.40;;;15.50;99.90;;;;;;5049983;28;20519;-37
2022/07/27 03:43:44;;;;;;;2.30;1.43;;;15.50;99.90;;;;;;5050625;28;20441;-48
2022/07/27 03:46:11;;;;;;;4.80;1.23;;;15.50;99.90;;;;;;5050914;28;20460;-38
2022/07/27 03:48:38;;;;;;;4.20;1.63;;;15.50;99.90;;;;;;5050673;28;20448;-40
2022/07/27 03:51:05;;;;;;;2.90;1.77;;;15.60;99.90;;;;;;5051495;28;20470;-43
2022/07/27 03:53:32;;;;;;;4.20;1.20;;;15.60;99.90;;;;;;5051038;28;20519;-46
2022/07/27 03:55:59;;;;;;;5.27;2.03;;;15.50;99.90;;;;;;5050708;28;20524;-49
2022/07/27 03:58:28;;;;;;;6.23;2.23;;;15.50;99.90;;;;;;5050806;28;20476;-47
2022/07/27 04:00:54;;;;;;;3.27;1.40;;;15.50;99.90;;;;;;5050320;28;20521;-49
2022/07/27 04:03:21;;;;;;;5.50;1.60;;;15.40;99.90;;;;;;5049960;28;20685;-49
2022/07/27 04:05:48;;;;;;;1.83;1.10;;;15.50;99.90;;;;;;5050066;28;20508;-49
2022/07/27 04:08:16;;;;;;;2.93;1.30;;;15.50;99.90;;;;;;5050498;28;20471;-47
2022/07/27 04:10:44;;;;;;;3.57;1.63;;;15.50;99.90;;;;;;5050549;28;20444;-39
2022/07/27 04:13:11;;;;;;;3.87;1.20;;;15.40;99.90;;;;;;5050341;28;20486;-37
2022/07/27 04:15:39;;;;;;;5.43;1.23;;;15.40;99.90;;;;;;5050988;28;20448;-40
2022/07/27 04:18:06;;;;;;;2.57;1.20;;;15.30;99.90;;;;;;5051687;28;20492;-45
2022/07/27 04:20:33;;;;;;;4.90;1.10;;;15.30;99.90;;;;;;5051980;28;20523;-53
2022/07/27 04:23:00;;;;;;;1.40;1.00;;;15.30;99.90;;;;;;5050981;28;20507;-51
2022/07/27 04:25:27;;;;;;;7.73;1.83;;;15.30;99.90;;;;;;5051066;28;20712;-46
2022/07/27 04:27:55;;;;;;;4.20;1.73;;;15.30;99.90;;;;;;5051274;28;20523;-51
2022/07/27 04:30:23;;;;;;;3.43;1.20;;;15.30;99.90;;;;;;5051353;28;20855;-54
2022/07/27 04:32:51;;;;;;;4.07;1.40;;;15.30;99.90;;;;;;5051669;28;20776;-52
2022/07/27 04:35:18;;;;;;;3.53;1.50;;;15.30;99.90;;;;;;5051539;28;20458;-54
2022/07/27 04:37:45;;;;;;;2.03;1.20;;;15.30;99.90;;;;;;5051179;28;20424;-37
2022/07/27 04:40:14;;;;;;;3.60;1.20;;;15.20;99.90;;;;;;5051710;28;20442;-38
2022/07/27 04:42:41;;;;;;;3.63;1.33;;;15.10;99.90;;;;;;5051192;28;20599;-34
2022/07/27 04:45:11;;;;;;;3.10;1.63;;;15.10;99.90;;;;;;5051508;28;20444;-43
2022/07/27 04:47:38;;;;;;;3.50;1.30;;;15.10;99.90;;;;;;5050702;28;20448;-39
2022/07/27 04:50:07;;;;;;;5.00;1.67;;;15.20;99.90;;;;;;5050225;28;20448;-47
2022/07/27 04:52:34;;;;;;;2.07;1.60;;;15.20;99.90;;;;;;5050346;28;20512;-50
2022/07/27 04:55:01;;;;;;;3.53;1.30;;;15.20;99.90;;;;;;5050431;28;20468;-48
2022/07/27 04:57:28;;;;;;;2.43;0.93;;;15.30;99.90;;;;;;5050373;28;20460;-47
2022/07/27 04:59:55;;;;;;;2.53;1.80;;;15.40;99.90;;;;;;5049613;28;20526;-45
2022/07/27 05:02:22;;;;;;;1.87;1.30;;;15.40;99.90;;;;;;5049661;28;20445;-49
2022/07/27 05:04:49;;;;;;;3.00;1.33;;;15.50;99.90;;;;;;5049561;28;20459;-52
2022/07/27 05:07:17;;;;;;;3.07;1.20;;;15.60;99.90;;;;;;5049986;28;20460;-46
2022/07/27 05:09:45;;;;;;;3.00;1.20;;;15.70;99.90;;;;;;5049479;28;20463;-40
2022/07/27 05:12:12;;;;;;;6.27;1.97;;;15.80;99.90;;;;;;5049901;28;20504;-38
2022/07/27 05:14:39;;;;;;;2.30;1.13;;;15.90;99.90;;;;;;5050157;28;20464;-38
2022/07/27 05:17:05;;;;;;;5.33;2.03;;;16.00;99.90;;;;;;5050676;28;20440;-49
2022/07/27 05:19:32;;;;;;;6.40;1.27;;;16.10;99.90;;;;;;5049860;28;20491;-47
2022/07/27 05:21:59;;;;;;;6.80;1.30;;;16.20;99.90;;;;;;5049263;28;20462;-52
2022/07/27 05:24:28;;;;;;;3.40;1.37;;;16.20;99.90;;;;;;5049370;28;20591;-49
2022/07/27 05:26:55;;;;;;;2.73;1.57;;;16.30;99.90;;;;;;5049496;28;20440;-53
2022/07/27 05:29:21;;;;;;;4.43;1.67;;;16.30;99.90;;;;;;5049610;28;20480;-47
2022/07/27 05:31:48;;;;;;;4.07;1.40;;;16.30;99.90;;;;;;5049872;28;20448;-49
2022/07/27 05:34:15;;;;;;;1.87;1.20;;;16.40;99.90;;;;;;5049884;28;20440;-49
2022/07/27 05:36:49;;;;;;;2.53;1.40;;;16.40;99.90;;;;;;5049545;28;20531;-39
2022/07/27 05:39:22;;;;;;;2.20;1.23;;;16.40;99.90;;;;;;5049320;28;20472;-48
2022/07/27 05:41:52;;;;;;;3.97;1.20;;;16.50;99.90;;;;;;5047895;28;20436;-43
2022/07/27 05:44:19;;;;;;;3.73;1.10;;;16.50;99.90;;;;;;5047658;28;20516;-46
2022/07/27 05:46:45;;;;;;;5.70;1.50;;;16.50;99.90;;;;;;5045960;28;20468;-47
2022/07/27 05:49:12;;;;;;;4.90;1.10;;;16.60;99.90;;;;;;5048297;28;20463;-50
2022/07/27 05:51:39;;;;;;;2.60;1.20;;;16.70;99.90;;;;;;5050580;28;20544;-44
2022/07/27 05:54:06;;;;;;;5.40;1.40;;;16.70;99.90;;;;;;5050775;28;20447;-47
2022/07/27 05:56:34;;;;;;;2.63;1.20;;;16.70;99.90;;;;;;5050184;28;20501;-43
2022/07/27 05:59:02;;;;;;;5.20;1.73;;;16.70;99.90;;;;;;5050386;28;20568;-45
2022/07/27 06:01:29;;;;;;;5.17;1.53;;;16.70;99.90;;;;;;5054861;28;20467;-40
2022/07/27 06:03:56;;;;;;;5.90;1.10;;;16.60;99.90;;;;;;5055795;27;20469;-47
2022/07/27 06:09:07;;;;;;;3.87;1.70;;;16.50;99.90;;;;;;5054338;28;20455;-46
2022/07/27 06:11:34;;;;;;;11.03;1.93;;;16.60;99.90;;;;;;5054211;28;20467;-47
2022/07/27 06:14:02;;;;;;;4.50;1.33;;;16.70;99.90;;;;;;5054032;28;20504;-48
2022/07/27 06:16:29;;;;;;;1.90;1.27;;;16.80;99.90;;;;;;5053999;28;20531;-47
2022/07/27 06:18:56;;;;;;;3.10;1.60;;;16.90;99.90;;;;;;5053991;28;20569;-45
2022/07/27 06:21:25;;;;;;;2.67;1.40;;;17.00;99.90;;;;;;5053850;28;20460;-43
2022/07/27 06:23:52;;;;;;;3.00;1.50;;;16.90;99.90;;;;;;5054017;28;20444;-48
2022/07/27 06:26:19;;;;;;;3.60;1.40;;;17.00;99.90;;;;;;5053913;28;20480;-51
2022/07/27 06:28:46;;;;;;;9.60;1.77;;;17.10;99.90;;;;;;5053773;28;20488;-52
2022/07/27 06:31:15;;;;;;;7.10;1.77;;;17.10;99.90;;;;;;5054239;28;20458;-46
2022/07/27 06:33:42;;;;;;;8.80;1.80;;;17.30;99.90;;;;;;5054312;28;20476;-48
2022/07/27 06:36:09;;;;;;;5.43;2.10;;;17.40;99.90;;;;;;5053961;28;20416;-53
2022/07/27 06:38:36;;;;;;;4.23;1.67;;;17.60;99.90;;;;;;5054154;28;20485;-47
2022/07/27 06:41:03;;;;;;;2.10;1.40;;;17.80;99.90;;;;;;5054234;28;20448;-44
2022/07/27 06:43:32;;;;;;;3.83;1.70;;;17.90;99.90;;;;;;5053901;28;20461;-45
2022/07/27 06:45:59;;;;;;;6.20;1.63;;;18.10;99.90;;;;;;5054075;28;20933;-49
2022/07/27 06:48:27;;;;;;;4.50;1.30;;;18.30;99.90;;;;;;5054313;28;20452;-40
2022/07/27 06:50:55;;;;;;;5.07;1.83;;;18.40;99.90;;;;;;5054595;28;20413;-48
2022/07/27 06:53:22;;;;;;;3.10;1.40;;;18.50;99.90;;;;;;5054040;28;20451;-47
2022/07/27 06:55:48;;;;;;;2.37;1.27;;;18.50;99.90;;;;;;5054074;28;20508;-46
2022/07/27 06:58:16;;;;;;;3.37;1.50;;;18.60;99.90;;;;;;5053846;28;20475;-51
2022/07/27 07:00:43;;;;;;;6.30;1.40;;;18.80;99.90;;;;;;5053366;28;20482;-41
2022/07/27 07:03:10;;;;;;;2.27;1.40;;;18.90;99.90;;;;;;5053162;28;20529;-49
2022/07/27 07:05:44;;;;;;;7.37;1.53;;;19.00;99.90;;;;;;5053086;28;20465;-48
2022/07/27 07:08:12;;;;;;;4.50;1.60;;;19.10;99.90;;;;;;5053560;28;20475;-45
2022/07/27 07:10:39;;;;;;;7.13;1.57;;;19.20;99.90;;;;;;5053145;28;20480;-51
2022/07/27 07:13:07;;;;;;;4.60;1.43;;;19.30;99.90;;;;;;5052563;28;20500;-51
2022/07/27 07:15:36;;;;;;;2.80;1.50;;;19.40;99.90;;;;;;5053118;28;20504;-45
2022/07/27 07:18:03;;;;;;;2.50;1.63;;;19.40;99.90;;;;;;5053432;28;20424;-48
2022/07/27 07:20:30;;;;;;;3.63;1.40;;;19.20;99.90;;;;;;5053383;28;20494;-43
2022/07/27 07:22:59;;;;;;;2.53;1.27;;;19.20;99.90;;;;;;5053396;28;20448;-47
2022/07/27 07:25:26;;;;;;;9.40;1.60;;;19.20;99.90;;;;;;5053245;28;20502;-52
2022/07/27 07:27:54;;;;;;;2.27;1.07;;;19.30;99.90;;;;;;5053406;28;20440;-45
2022/07/27 07:30:21;;;;;;;1.90;1.20;;;19.20;99.90;;;;;;5053668;28;20437;-48
2022/07/27 07:32:48;;;;;;;2.40;1.13;;;19.50;99.90;;;;;;5037322;28;20460;-45
2022/07/27 07:35:15;;;;;;;2.47;1.77;;;19.70;99.90;;;;;;5052778;28;20476;-45
2022/07/27 07:37:44;;;;;;;2.23;1.23;;;20.30;99.90;;;;;;5052793;28;20456;-49
2022/07/27 07:40:12;;;;;;;3.17;2.87;;;20.90;99.90;;;;;;5053937;28;20649;-42
2022/07/27 07:42:49;;;;;;;3.97;1.30;;;21.40;99.90;;;;;;5053466;28;20480;-48
2022/07/27 07:45:16;;;;;;;3.20;1.40;;;20.90;99.90;;;;;;5053482;28;20443;-46
2022/07/27 07:47:43;;;;;;;2.60;1.43;;;20.70;99.90;;;;;;5052870;28;20452;-49
2022/07/27 07:50:10;;;;;;;5.67;1.60;;;20.50;99.90;;;;;;5052653;28;20492;-46
2022/07/27 07:52:37;;;;;;;4.00;1.50;;;20.30;99.90;;;;;;5052549;28;20461;-47
2022/07/27 07:55:05;;;;;;;5.87;1.30;;;20.20;99.90;;;;;;5052956;28;20457;-42
2022/07/27 07:57:33;;;;;;;3.73;1.00;;;20.10;99.90;;;;;;5066851;27;20448;-37
2022/07/27 07:59:59;;;;;;;2.50;1.07;;;19.90;99.90;;;;;;5051476;28;20476;-52
2022/07/27 08:02:26;;;;;;;2.20;1.10;;;19.80;99.90;;;;;;5055540;27;20512;-46
2022/07/27 08:04:53;;;;;;;5.33;1.30;;;19.80;99.90;;;;;;5053117;27;20448;-44
2022/07/27 08:07:20;;;;;;;4.40;1.20;;;19.70;99.90;;;;;;5037367;28;20508;-43
2022/07/27 08:09:47;;;;;;;2.33;1.13;;;19.60;99.90;;;;;;5067665;27;20484;-44
2022/07/27 08:12:14;;;;;;;3.67;1.20;;;19.40;99.90;;;;;;5069124;27;20452;-39
2022/07/27 08:14:42;;;;;;;3.60;1.20;;;19.30;99.90;;;;;;5052574;28;20536;-46
2022/07/27 08:17:09;;;;;;;2.03;1.33;;;19.10;99.90;;;;;;5052480;28;20448;-47
2022/07/27 08:19:36;;;;;;;3.30;1.00;;;18.80;99.90;;;;;;5052315;28;20584;-47
2022/07/27 08:22:03;;;;;;;1.57;0.97;;;18.70;99.90;;;;;;5051829;28;20504;-48
2022/07/27 08:24:30;;;;;;;9.80;1.43;;;18.50;99.90;;;;;;5050656;28;20452;-38
2022/07/27 08:26:57;;;;;;;4.10;1.43;;;18.40;99.90;;;;;;5051903;28;20430;-45
2022/07/27 08:29:24;;;;;;;4.83;1.33;;;18.30;99.90;;;;;;5052316;28;21090;-42
2022/07/27 08:31:52;;;;;;;3.47;1.40;;;18.20;99.90;;;;;;5051742;28;20479;-46
2022/07/27 08:34:19;;;;;;;5.97;1.10;;;18.00;99.90;;;;;;5050162;28;20479;-50
2022/07/27 08:36:45;;;;;;;2.00;0.93;;;18.00;99.90;;;;;;5051468;28;20495;-48
2022/07/27 08:39:12;;;;;;;2.30;1.00;;;18.00;99.90;;;;;;5052297;28;20460;-49
2022/07/27 08:41:39;;;;;;;7.63;1.67;;;18.30;99.90;;;;;;5051255;28;20456;-46
2022/07/27 08:44:08;;;;;;;3.60;1.97;;;18.50;99.90;;;;;;5044924;28;20495;-44
2022/07/27 08:46:40;;;;;;;1.00;0.80;;;18.80;99.90;;;;;;5050185;28;20448;-46
2022/07/27 08:49:08;;;;;;;2.23;1.10;;;19.10;99.90;;;;;;5049854;28;20471;-42
2022/07/27 08:51:37;;;;;;;2.60;1.03;;;19.80;99.90;;;;;;5051536;28;20444;-45
2022/07/27 08:54:04;;;;;;;2.23;0.90;;;20.40;99.90;;;;;;5050733;28;20508;-39
2022/07/27 08:56:31;;;;;;;1.87;1.27;;;21.10;99.90;;;;;;5051138;28;20452;-48
2022/07/27 08:58:58;;;;;;;5.10;1.03;;;21.30;97.90;;;;;;5050003;28;20435;-43
2022/07/27 09:01:25;;;;;;;2.90;1.30;;;21.00;96.10;;;;;;5050592;28;20456;-50
2022/07/27 09:03:52;;;;;;;1.77;1.10;;;20.80;97.30;;;;;;5050187;28;20444;-47
2022/07/27 09:06:42;;;;;;;1.77;1.43;;;20.40;97.30;;;;;;5051934;28;20471;-43
2022/07/27 09:09:09;;;;;;;2.17;1.07;;;20.40;98.50;;;;;;5049569;28;20459;-51
2022/07/27 09:11:37;;;;;;;3.37;1.20;;;20.80;98.50;;;;;;5042481;28;20456;-52
2022/07/27 09:14:06;;;;;;;5.73;2.03;;;21.30;96.90;;;;;;5042505;28;20460;-56
2022/07/27 09:16:35;;;;;;;3.20;1.93;;;21.40;96.10;;;;;;5049890;28;20539;-51
2022/07/27 09:19:04;;;;;;;3.30;1.67;;;21.30;95.70;;;;;;5050998;28;20413;-55
2022/07/27 09:21:31;;;;;;;5.33;1.87;;;21.90;94.70;;;;;;5051305;28;20452;-53
2022/07/27 09:24:07;;;;;;;4.20;1.37;;;22.90;93.80;;;;;;5050832;27;20436;-55
2022/07/27 09:26:34;;;;;;;1.80;1.00;;;24.20;90.40;;;;;;5051312;28;20423;-58
2022/07/27 09:29:03;;;;;;;3.17;1.00;;;24.60;80.90;;;;;;5050812;28;20475;-53
2022/07/27 09:31:31;;;;;;;2.80;1.23;;;23.90;77.60;;;;;;5051034;28;20516;-52
2022/07/27 09:34:00;;;;;;;5.80;1.47;;;23.10;79.30;;;;;;5051188;28;20416;-53
2022/07/27 09:36:28;;;;;;;5.13;1.43;;;22.50;82.60;;;;;;5053976;28;20497;-51
2022/07/27 09:38:58;;;;;;;2.13;1.23;;;22.10;84.40;;;;;;5054879;28;20452;-57
2022/07/27 09:41:26;;;;;;;4.37;1.30;;;21.60;86.40;;;;;;5053821;28;20523;-53
2022/07/27 09:43:54;;;;;;;1.53;1.00;;;21.20;89.30;;;;;;5052412;28;20523;-56
2022/07/27 09:46:34;;;;;;;1.90;1.20;;;20.90;90.90;;;;;;5053653;28;20495;-56
2022/07/27 09:49:01;;;;;;;4.97;1.00;;;20.60;91.10;;;;;;5049616;28;20439;-54
2022/07/27 09:51:28;;;;;;;2.83;1.20;;;20.20;91.90;;;;;;5052410;28;20523;-52
2022/07/27 09:53:57;;;;;;;2.20;1.10;;;20.10;94.00;;;;;;5053616;28;20433;-57
2022/07/27 09:56:30;;;;;;;2.50;1.20;;;19.90;93.00;;;;;;5144451;22;20513;-41
2022/07/27 09:58:58;;;;;;;1.80;1.10;;;19.70;94.20;;;;;;5076555;28;20549;-46
2022/07/27 10:01:27;;;;;;;2.20;1.20;;;19.60;94.70;;;;;;5077542;28;20482;-50
2022/07/27 10:03:59;;;;;;;2.73;1.43;;;19.50;95.50;;;;;;5077617;28;20485;-53
2022/07/27 10:06:27;;;;;;;3.23;1.50;;;19.40;96.10;;;;;;5077594;28;20644;-50
2022/07/27 10:08:56;;;;;;;3.43;1.53;;;19.40;97.00;;;;;;5077770;28;20450;-53
2022/07/27 10:11:24;;;;;;;2.67;1.10;;;19.30;97.60;;;;;;5078108;28;20478;-52
2022/07/27 10:13:54;;;;;;;1.77;1.10;;;19.30;98.60;;;;;;5077690;28;20461;-49
2022/07/27 10:16:23;;;;;;;1.50;0.90;;;19.50;99.20;;;;;;5078210;28;20479;-46
2022/07/27 10:18:58;;;;;;;3.30;1.30;;;19.80;97.80;;;;;;5078202;28;20478;-47
2022/07/27 10:21:25;;;;;;;4.40;1.20;;;20.10;97.40;;;;;;5078686;28;20473;-48
2022/07/27 10:23:57;;;;;;;2.00;1.00;;;20.40;95.90;;;;;;5078352;28;20447;-50
2022/07/27 10:26:32;;;;;;;3.63;1.10;;;20.70;94.70;;;;;;5078316;28;20487;-46
2022/07/27 10:29:02;;;;;;;4.13;1.33;;;20.90;95.10;;;;;;5077413;28;20507;-48
2022/07/27 10:31:32;;;;;;;3.67;1.30;;;21.00;93.90;;;;;;5077320;28;20426;-56
2022/07/27 10:34:02;;;;;;;7.57;1.70;;;21.10;93.30;;;;;;5077399;28;20475;-56
2022/07/27 10:36:47;;;;;;;1.83;1.07;;;21.10;94.10;;;;;;5076639;28;20523;-46
2022/07/27 10:39:34;;;;;;;1.50;1.20;;;21.10;94.00;;;;;;5076168;28;20489;-49
2022/07/27 10:42:36;;;;;;;2.63;1.23;;;21.10;93.70;;;;;;5070536;28;20446;-57
2022/07/27 10:45:10;;;;;;;3.50;1.37;;;21.40;94.30;;;;;;5067387;28;20498;-50
2022/07/27 10:47:39;;;;;;;4.83;1.43;;;21.70;94.30;;;;;;5075824;28;20426;-54
2022/07/27 10:50:31;;;;;;;2.87;1.30;;;21.80;92.80;;;;;;5076961;28;20442;-43
2022/07/27 10:53:05;;;;;;;2.13;1.30;;;22.00;91.90;;;;;;5061977;28;20494;-49
2022/07/27 10:55:50;;;;;;;5.00;1.27;;;22.20;91.30;;;;;;5082048;28;20441;-52
2022/07/27 10:58:42;;;;;;;3.73;1.20;;;22.40;90.90;;;;;;5096449;28;20434;-45
2022/07/27 11:01:12;;;;;;;2.50;1.10;;;22.80;90.60;;;;;;5096576;28;20727;-48
2022/07/27 11:03:39;;;;;;;1.53;1.20;;;23.20;90.00;;;;;;5096630;28;20478;-44
2022/07/27 11:06:09;;;;;;;1.40;1.30;;;23.10;85.70;;;;;;5097019;28;20451;-51
2022/07/27 11:08:39;;;;;;;1.97;1.30;;;22.70;84.00;;;;;;5096084;28;20466;-52
2022/07/27 11:11:08;;;;;;;5.40;2.20;;;22.30;86.00;;;;;;5096320;28;20430;-45
2022/07/27 11:13:36;;;;;;;5.03;1.37;;;22.00;86.30;;;;;;5096485;28;20453;-57
2022/07/27 11:16:05;;;;;;;3.63;1.20;;;21.50;88.10;;;;;;5096512;28;20474;-50
2022/07/27 11:18:35;;;;;;;4.40;1.10;;;21.20;88.10;;;;;;5096484;28;20439;-44
2022/07/27 11:21:16;;;;;;;5.50;1.10;;;21.20;90.40;;;;;;5096423;28;20466;-52
2022/07/27 11:23:45;;;;;;;5.17;1.97;;;21.20;89.90;;;;;;5095886;28;20569;-47
2022/07/27 11:26:15;;;;;;;4.80;1.20;;;21.10;90.50;;;;;;5095965;28;20446;-50
2022/07/27 11:28:43;;;;;;;2.10;1.40;;;21.40;90.40;;;;;;5096101;28;20442;-51
2022/07/27 11:31:13;;;;;;;3.57;1.70;;;21.70;90.20;;;;;;5096189;28;20522;-52
2022/07/27 11:33:55;;;;;;;3.07;1.30;;;21.70;89.10;;;;;;5095934;28;20454;-49
2022/07/27 11:36:24;;;;;;;1.90;1.20;;;21.60;90.00;;;;;;5096076;28;20454;-48
2022/07/27 11:38:52;;;;;;;2.57;1.20;;;21.40;90.50;;;;;;5096119;28;20530;-47
2022/07/27 11:41:24;;;;;;;1.83;1.10;;;21.40;90.50;;;;;;5095575;28;20470;-54
2022/07/27 11:43:51;;;;;;;2.00;1.17;;;21.60;89.00;;;;;;5095768;28;20419;-52
2022/07/27 11:46:21;;;;;;;2.50;1.33;;;21.60;87.90;;;;;;5095075;28;20538;-47
2022/07/27 11:48:53;;;;;;;2.50;1.30;;;21.60;86.50;;;;;;5095319;28;20463;-52
2022/07/27 11:51:20;;;;;;;2.00;1.30;;;21.70;86.90;;;;;;5095543;28;20502;-54
2022/07/27 11:53:47;;;;;;;3.93;1.73;;;21.70;86.50;;;;;;5095785;28;20462;-44
2022/07/27 11:56:22;;;;;;;3.30;1.40;;;21.80;86.50;;;;;;5095439;28;20423;-49
2022/07/27 11:59:12;;;;;;;3.77;1.60;;;21.80;87.80;;;;;;5095646;28;20426;-53
2022/07/27 12:01:41;;;;;;;4.00;1.40;;;21.60;87.40;;;;;;5095922;28;20486;-47
2022/07/27 12:04:18;;;;;;;2.23;1.17;;;21.60;88.60;;;;;;5095515;28;20439;-52
2022/07/27 12:07:00;;;;;;;5.47;1.47;;;21.50;88.90;;;;;;5095235;28;20434;-54
2022/07/27 12:09:29;;;;;;;2.27;1.40;;;21.50;89.30;;;;;;5095134;28;20557;-48
2022/07/27 12:11:58;;;;;;;1.97;1.10;;;21.40;88.70;;;;;;5095205;28;20480;-49
2022/07/27 12:14:33;;;;;;;2.37;1.40;;;21.30;90.50;;;;;;5095386;28;20474;-53
2022/07/27 12:17:18;;;;;;;3.00;1.60;;;21.20;90.30;;;;;;5095319;28;20463;-57
2022/07/27 12:19:53;;;;;;;1.80;1.10;;;21.20;90.20;;;;;;5095189;28;20443;-49
2022/07/27 12:22:25;;;;;;;3.40;1.70;;;21.10;90.70;;;;;;5094939;28;20481;-51
2022/07/27 12:24:53;;;;;;;3.67;1.20;;;21.00;89.30;;;;;;5095216;28;20494;-51
2022/07/27 12:27:21;;;;;;;3.07;2.80;;;21.00;90.10;;;;;;5094749;28;20473;-49
2022/07/27 12:30:06;;;;;;;6.17;1.37;;;21.20;90.80;;;;;;5094984;28;20760;-51
2022/07/27 12:32:36;;;;;;;2.37;1.30;;;21.40;90.30;;;;;;5095106;28;20465;-49
2022/07/27 12:35:19;;;;;;;2.63;1.40;;;21.50;90.00;;;;;;5095113;28;20446;-51
2022/07/27 12:37:47;;;;;;;2.73;1.30;;;21.60;86.90;;;;;;5095176;28;20415;-50
2022/07/27 12:40:15;;;;;;;5.23;1.40;;;21.70;85.90;;;;;;5095098;28;20489;-48
2022/07/27 12:42:43;;;;;;;6.90;1.70;;;21.70;84.50;;;;;;5094714;28;20506;-50
2022/07/27 12:45:15;;;;;;;5.67;1.20;;;21.60;84.20;;;;;;5094474;28;20749;-56
2022/07/27 12:47:45;;;;;;;3.53;1.50;;;21.50;84.70;;;;;;5094848;28;20451;-51
2022/07/27 12:50:15;;;;;;;3.33;1.70;;;21.50;84.80;;;;;;5094626;28;20430;-47
2022/07/27 12:52:46;;;;;;;2.17;1.30;;;21.70;85.00;;;;;;5094432;28;20452;-55
2022/07/27 12:55:14;;;;;;;5.20;1.53;;;21.90;84.50;;;;;;5094591;28;20458;-57
2022/07/27 12:57:42;;;;;;;3.60;1.30;;;22.00;83.10;;;;;;5078788;28;20427;-46
2022/07/27 13:00:11;;;;;;;2.13;1.23;;;22.10;82.90;;;;;;5095023;28;20440;-53